Time;durP1;ratioP1;P1;durP2;ratioP2;P2;SDS_P1;SDS_P2;PMS_P1;PMS_P2;Temp;Humidity;BMP_temperature;BMP_pressure;BME280_temperature;BME280_humidity;BME280_pressure;Samples;Min_cycle;Max_cycle;Signal;HPM_P1;HPM_P2
2022/08/04 00:00:39;;;;;;;3.70;1.42;;;;;;;26.40;76.66;100740.53;5010408;28;20038;-68
2022/08/04 00:03:14;;;;;;;0.93;0.75;;;;;;;26.33;76.96;100746.38;5008872;28;20104;-68
2022/08/04 00:05:57;;;;;;;1.60;0.73;;;;;;;26.12;78.06;100744.53;5009405;28;20094;-67
2022/08/04 00:08:39;;;;;;;3.58;1.70;;;;;;;26.12;78.17;100741.78;5009146;28;20474;-67
2022/08/04 00:11:07;;;;;;;3.42;1.02;;;;;;;26.12;78.37;100741.78;5007948;28;20044;-67
2022/08/04 00:13:38;;;;;;;2.85;0.68;;;;;;;26.13;78.19;100748.81;5009400;28;20505;-67
2022/08/04 00:16:06;;;;;;;1.00;0.85;;;;;;;26.19;78.20;100751.75;5010199;28;20095;-67
2022/08/04 00:18:41;;;;;;;1.92;0.80;;;;;;;26.06;78.72;100738.06;5008788;28;20783;-67
2022/08/04 00:21:10;;;;;;;3.10;0.95;;;;;;;26.02;78.68;100742.94;5010213;28;20049;-67
2022/08/04 00:23:38;;;;;;;1.05;0.70;;;;;;;25.94;79.07;100738.94;5005853;28;20036;-67
2022/08/04 00:26:04;;;;;;;1.75;0.80;;;;;;;25.86;79.59;100738.47;4997740;28;20048;-68
2022/08/04 00:28:30;;;;;;;1.20;0.85;;;;;;;25.87;79.74;100733.72;5016351;28;20026;-68
2022/08/04 00:30:56;;;;;;;4.35;0.98;;;;;;;25.87;79.59;100737.25;5007762;28;20609;-67
2022/08/04 00:33:21;;;;;;;1.80;0.90;;;;;;;25.93;79.22;100740.97;5010423;28;20374;-67
2022/08/04 00:35:48;;;;;;;0.80;0.70;;;;;;;25.90;79.72;100741.84;5007891;28;20116;-68
2022/08/04 00:38:16;;;;;;;1.70;1.17;;;;;;;25.90;79.66;100741.84;5008590;28;20061;-67
2022/08/04 00:41:21;;;;;;;2.00;1.05;;;;;;;25.81;80.23;100752.13;5010073;28;20045;-68
2022/08/04 00:43:49;;;;;;;1.77;1.27;;;;;;;25.75;80.68;100748.41;5008806;28;20042;-68
2022/08/04 00:46:20;;;;;;;3.97;1.50;;;;;;;25.72;80.90;100744.59;5007821;28;20041;-67
2022/08/04 00:49:01;;;;;;;0.82;0.68;;;;;;;25.69;80.88;100736.44;5007634;28;20034;-68
2022/08/04 00:51:39;;;;;;;1.73;0.98;;;;;;;25.63;80.91;100736.28;5009933;28;20371;-68
2022/08/04 00:54:14;;;;;;;2.28;0.90;;;;;;;25.58;81.49;100736.09;5005466;28;20038;-68
2022/08/04 00:56:43;;;;;;;2.58;0.73;;;;;;;25.57;81.62;100738.09;5010149;28;20168;-68
2022/08/04 00:59:51;;;;;;;1.73;0.95;;;;;;;25.60;81.44;100728.16;5009498;28;20061;-67
2022/08/04 01:02:22;;;;;;;1.33;0.88;;;;;;;25.54;81.64;100733.50;5000443;28;20431;-67
2022/08/04 01:05:02;;;;;;;1.40;0.95;;;;;;;25.65;81.30;100730.28;5009316;28;20036;-68
2022/08/04 01:07:52;;;;;;;1.63;0.88;;;;;;;25.70;81.12;100735.22;5009789;28;20446;-67
2022/08/04 01:10:55;;;;;;;2.20;0.75;;;;;;;25.71;80.97;100725.72;5008728;28;20034;-68
2022/08/04 01:13:42;;;;;;;1.33;0.90;;;;;;;25.65;80.94;100717.28;5007875;28;20069;-68
2022/08/04 01:16:11;;;;;;;1.98;0.95;;;;;;;25.62;81.64;100720.19;5006399;28;21085;-67
2022/08/04 01:19:04;;;;;;;1.35;0.70;;;;;;;25.63;81.38;100719.72;5012125;28;20026;-68
2022/08/04 01:21:48;;;;;;;1.20;0.80;;;;;;;25.58;81.67;100717.56;5013356;28;20572;-67
2022/08/04 01:24:58;;;;;;;2.83;1.10;;;;;;;25.51;81.78;100708.81;5008618;28;20435;-67
2022/08/04 01:27:46;;;;;;;1.20;0.90;;;;;;;25.42;82.40;100711.53;5010485;28;20398;-67
2022/08/04 01:30:12;;;;;;;1.15;0.80;;;;;;;25.36;82.71;100705.81;5012321;28;20398;-68
2022/08/04 01:32:44;;;;;;;1.80;0.88;;;;;;;25.36;82.76;100713.34;5012684;28;20038;-67
2022/08/04 01:35:20;;;;;;;1.80;0.75;;;;;;;25.33;83.02;100703.97;5019895;28;20041;-67
2022/08/04 01:38:23;;;;;;;1.80;0.77;;;;;;;25.30;82.66;100709.63;5016831;28;20030;-69
2022/08/04 01:40:55;;;;;;;1.00;0.82;;;;;;;25.22;83.01;100705.63;5006156;28;20076;-67
2022/08/04 01:43:22;;;;;;;2.92;1.08;;;;;;;25.19;83.34;100703.75;5010804;28;20080;-67
2022/08/04 01:45:50;;;;;;;0.60;0.60;;;;;;;25.18;83.08;100696.72;5012398;28;20034;-69
2022/08/04 01:48:22;;;;;;;1.52;1.10;;;;;;;25.07;83.69;100694.34;5012257;28;20433;-67
2022/08/04 01:50:51;;;;;;;5.13;1.20;;;;;;;25.10;83.57;100698.19;5012319;28;20033;-67
2022/08/04 01:53:18;;;;;;;0.75;0.57;;;;;;;25.00;83.48;100692.66;5013145;28;20136;-67
2022/08/04 01:55:47;;;;;;;0.85;0.75;;;;;;;24.98;83.94;100697.06;5012525;28;20029;-67
2022/08/04 01:58:17;;;;;;;1.80;0.85;;;;;;;24.96;83.96;100700.28;5012052;28;20430;-67
2022/08/04 02:00:54;;;;;;;2.92;1.50;;;;;;;24.96;83.93;100697.53;5008441;28;20038;-69
2022/08/04 02:03:20;;;;;;;1.75;0.90;;;;;;;24.95;83.99;100690.47;5012981;28;20038;-67
2022/08/04 02:05:49;;;;;;;0.80;0.80;;;;;;;24.88;84.35;100685.22;5011911;28;20386;-68
2022/08/04 02:08:22;;;;;;;2.15;0.90;;;;;;;24.89;84.14;100697.78;5006187;28;20042;-67
2022/08/04 02:11:14;;;;;;;1.63;0.77;;;;;;;24.82;84.44;100687.03;5010524;28;20033;-68
2022/08/04 02:13:53;;;;;;;1.80;1.00;;;;;;;24.75;84.71;100692.06;5011377;28;20072;-67
2022/08/04 02:16:36;;;;;;;3.15;0.88;;;;;;;24.68;85.00;100693.03;5010065;28;20026;-67
2022/08/04 02:19:07;;;;;;;1.33;1.00;;;;;;;24.71;84.81;100692.16;5005736;28;20502;-67
2022/08/04 02:21:33;;;;;;;;;;;;;;;24.58;85.17;100688.72;5012895;28;20029;-67
2022/08/04 02:24:06;;;;;;;2.97;0.90;;;;;;;24.60;85.17;100693.75;5012165;28;20004;-67
2022/08/04 02:26:33;;;;;;;1.13;0.88;;;;;;;24.60;85.21;100689.00;5005430;28;20062;-67
2022/08/04 02:29:19;;;;;;;1.00;0.80;;;;;;;24.58;85.35;100691.47;5011226;28;20034;-67
2022/08/04 02:31:51;;;;;;;1.75;0.88;;;;;;;24.55;85.38;100684.09;5012313;28;20029;-67
2022/08/04 02:34:37;;;;;;;1.38;0.93;;;;;;;24.49;85.90;100683.13;5007399;28;20483;-68
2022/08/04 02:37:04;;;;;;;4.20;1.20;;;;;;;24.41;86.08;100683.84;5003757;28;20068;-67
2022/08/04 02:39:35;;;;;;;3.10;0.90;;;;;;;24.34;86.52;100686.84;5009567;28;20462;-67
2022/08/04 02:42:03;;;;;;;1.73;0.88;;;;;;;24.24;87.05;100683.25;5005873;28;20030;-67
2022/08/04 02:44:30;;;;;;;2.95;1.30;;;;;;;24.29;87.11;100684.66;5007873;28;20053;-67
2022/08/04 02:46:58;;;;;;;1.60;0.90;;;;;;;24.34;86.46;100676.59;5011376;28;20029;-67
2022/08/04 02:49:25;;;;;;;1.73;1.00;;;;;;;24.36;86.78;100671.41;5008814;28;20034;-67
2022/08/04 02:51:53;;;;;;;2.47;1.08;;;;;;;24.29;86.68;100673.66;5009795;28;20394;-67
2022/08/04 02:54:26;;;;;;;2.67;1.13;;;;;;;24.29;86.88;100673.66;5009001;28;20034;-68
2022/08/04 02:56:54;;;;;;;2.45;1.38;;;;;;;24.26;87.11;100672.56;5023633;28;20048;-67
2022/08/04 02:59:24;;;;;;;4.40;1.20;;;;;;;24.28;86.77;100672.88;5007234;28;20112;-67
2022/08/04 03:01:53;;;;;;;2.87;1.20;;;;;;;24.10;87.96;100669.97;5011961;28;20501;-69
2022/08/04 03:05:00;;;;;;;2.42;1.08;;;;;;;24.19;87.50;100667.31;5011881;28;20390;-67
2022/08/04 03:08:07;;;;;;;1.65;1.10;;;;;;;24.19;87.51;100675.56;4994006;28;20098;-67
2022/08/04 03:10:43;;;;;;;2.13;1.00;;;;;;;24.05;88.37;100676.84;5008700;28;20022;-67
2022/08/04 03:13:36;;;;;;;3.72;1.13;;;;;;;24.04;88.86;100674.53;5004755;28;20036;-67
2022/08/04 03:16:10;;;;;;;1.80;1.40;;;;;;;24.17;87.96;100676.03;5010892;28;20053;-67
2022/08/04 03:18:50;;;;;;;2.75;1.30;;;;;;;24.14;88.13;100676.91;5003961;28;20034;-67
2022/08/04 03:21:37;;;;;;;3.55;1.38;;;;;;;23.99;89.05;100680.56;5009910;28;20030;-67
2022/08/04 03:24:20;;;;;;;2.35;1.48;;;;;;;24.00;88.97;100680.09;5010406;28;20084;-68
2022/08/04 03:27:21;;;;;;;6.95;1.45;;;;;;;23.99;89.20;100683.31;5011011;28;20029;-67
2022/08/04 03:30:02;;;;;;;2.60;1.38;;;;;;;24.09;88.36;100674.72;5002883;28;20033;-68
2022/08/04 03:32:47;;;;;;;2.28;1.05;;;;;;;24.08;87.97;100678.69;5006875;28;20048;-67
2022/08/04 03:35:25;;;;;;;1.98;1.00;;;;;;;24.09;88.03;100687.72;5010201;28;20037;-70
2022/08/04 03:38:12;;;;;;;1.20;1.00;;;;;;;24.08;87.69;100677.91;5006810;28;20398;-70
2022/08/04 03:41:11;;;;;;;1.50;0.98;;;;;;;23.95;88.90;100677.94;4998240;28;20368;-70
2022/08/04 03:44:08;;;;;;;2.00;1.17;;;;;;;23.91;89.04;100679.25;4991339;28;20034;-70
2022/08/04 03:47:26;;;;;;;1.27;1.15;;;;;;;23.89;89.09;100676.19;5004245;28;20025;-70
2022/08/04 03:50:04;;;;;;;3.85;1.10;;;;;;;23.85;89.59;100678.28;5003152;28;20057;-70
2022/08/04 03:53:08;;;;;;;1.88;1.38;;;;;;;23.89;89.34;100684.44;4991481;28;20074;-70
2022/08/04 03:56:07;;;;;;;7.07;1.30;;;;;;;23.87;89.75;100684.13;4991953;28;20049;-70
2022/08/04 03:58:33;;;;;;;4.82;1.35;;;;;;;23.84;90.04;100677.53;5004403;28;20030;-70
2022/08/04 04:01:16;;;;;;;1.25;1.13;;;;;;;23.92;89.73;100676.09;5010664;28;20117;-70
2022/08/04 04:04:01;;;;;;;2.60;1.90;;;;;;;23.90;89.53;100677.75;5010850;28;20489;-70
2022/08/04 04:06:54;;;;;;;1.95;1.25;;;;;;;23.89;89.75;100673.44;5004538;28;20030;-71
2022/08/04 04:09:38;;;;;;;0.70;0.63;;;;;;;23.92;89.86;100675.31;5001237;28;20022;-70
2022/08/04 04:12:25;;;;;;;1.95;1.08;;;;;;;23.93;89.75;100674.09;5010288;28;20034;-67
2022/08/04 04:15:13;;;;;;;2.33;1.23;;;;;;;23.97;89.78;100672.75;5009861;28;20045;-67
2022/08/04 04:18:01;;;;;;;6.88;1.20;;;;;;;23.92;89.88;100667.06;5010306;28;20026;-68
2022/08/04 04:21:05;;;;;;;3.45;1.33;;;;;;;23.91;90.32;100676.50;5011110;28;20051;-68
2022/08/04 04:23:40;;;;;;;2.10;1.20;;;;;;;23.88;89.89;100666.41;5032388;22;20089;-66
2022/08/04 04:26:37;;;;;;;4.15;1.13;;;;;;;23.94;89.90;100675.63;4990718;28;20042;-66
2022/08/04 04:29:21;;;;;;;1.45;0.93;;;;;;;23.87;89.69;100662.09;4991070;28;20045;-67
2022/08/04 04:32:13;;;;;;;2.08;1.00;;;;;;;23.93;90.14;100671.31;4990965;28;20069;-67
2022/08/04 04:35:13;;;;;;;1.55;1.13;;;;;;;23.98;89.72;100663.28;4971601;28;20034;-67
2022/08/04 04:37:38;;;;;;;1.65;1.10;;;;;;;23.90;90.19;100661.22;4968756;28;20030;-67
2022/08/04 04:40:19;;;;;;;2.80;0.90;;;;;;;23.90;90.13;100658.47;4971913;28;20427;-67
2022/08/04 04:43:05;;;;;;;1.13;0.98;;;;;;;23.95;90.04;100660.66;4971885;28;20035;-67
2022/08/04 04:45:49;;;;;;;1.85;1.20;;;;;;;24.02;90.00;100666.69;4951174;29;20050;-67
2022/08/04 04:48:35;;;;;;;1.13;0.98;;;;;;;24.02;89.95;100660.44;4954608;28;21436;-67
2022/08/04 04:51:49;;;;;;;2.83;1.13;;;;;;;24.02;89.75;100661.19;4974108;28;20089;-67
2022/08/04 04:54:33;;;;;;;3.28;1.25;;;;;;;24.03;90.01;100672.97;4961914;28;20051;-67
2022/08/04 04:57:18;;;;;;;3.13;1.20;;;;;;;24.10;89.49;100667.22;4974777;28;20458;-66
2022/08/04 05:00:01;;;;;;;6.47;1.40;;;;;;;24.04;89.77;100658.03;4974547;28;20092;-66
2022/08/04 05:02:47;;;;;;;3.38;1.48;;;;;;;24.16;89.44;100662.69;4972186;28;20041;-67
2022/08/04 05:05:23;;;;;;;2.10;1.08;;;;;;;24.23;89.48;100659.69;4975122;28;20090;-67
2022/08/04 05:07:51;;;;;;;3.25;1.08;;;;;;;24.25;89.25;100657.25;4966631;28;20093;-67
2022/08/04 05:10:58;;;;;;;1.27;1.00;;;;;;;24.31;89.36;100662.97;4973981;28;20118;-67
2022/08/04 05:13:35;;;;;;;2.53;1.23;;;;;;;24.34;89.46;100660.06;4914370;29;20127;-66
2022/08/04 05:16:10;;;;;;;1.80;0.95;;;;;;;24.43;89.43;100659.38;4968100;28;20054;-68
2022/08/04 05:18:39;;;;;;;1.95;1.15;;;;;;;24.27;89.93;100654.06;4973515;28;20065;-67
2022/08/04 05:21:36;;;;;;;4.00;1.05;;;;;;;24.39;89.85;100662.25;4974085;28;20018;-67
2022/08/04 05:24:07;;;;;;;2.42;1.35;;;;;;;24.49;89.58;100655.59;4950802;28;20062;-67
2022/08/04 05:26:40;;;;;;;1.10;1.00;;;;;;;24.56;90.45;100654.56;4973753;28;20488;-67
2022/08/04 05:29:10;;;;;;;1.75;1.13;;;;;;;24.69;90.03;100649.72;4973223;28;20046;-68
2022/08/04 05:31:45;;;;;;;2.20;1.57;;;;;;;24.69;89.42;100638.72;4974468;28;20037;-68
2022/08/04 05:34:21;;;;;;;2.55;1.33;;;;;;;24.92;89.31;100641.00;4952766;28;20049;-68
2022/08/04 05:36:51;;;;;;;1.58;1.10;;;;;;;25.08;89.45;100642.75;4972559;28;20089;-67
2022/08/04 05:39:40;;;;;;;2.13;1.42;;;;;;;25.38;87.74;100650.94;4973497;28;20045;-67
2022/08/04 05:42:06;;;;;;;1.45;1.02;;;;;;;25.66;87.14;100647.06;4973379;28;20080;-68
2022/08/04 05:44:33;;;;;;;1.45;0.85;;;;;;;25.94;85.74;100647.84;4973261;28;20089;-67
2022/08/04 05:47:01;;;;;;;1.08;0.88;;;;;;;26.15;82.85;100635.88;4970000;28;20043;-68
2022/08/04 05:49:28;;;;;;;1.98;0.73;;;;;;;26.25;83.01;100650.47;4972243;28;20070;-68
2022/08/04 05:51:57;;;;;;;1.40;0.75;;;;;;;26.47;82.44;100640.78;4955918;28;20403;-67
2022/08/04 05:54:23;;;;;;;2.30;0.90;;;;;;;26.77;81.83;100639.78;4969047;28;20483;-67
2022/08/04 05:56:50;;;;;;;3.33;1.30;;;;;;;26.78;81.37;100644.09;4972919;28;20122;-67
2022/08/04 05:59:18;;;;;;;1.30;0.88;;;;;;;26.96;80.52;100639.72;4971621;28;20098;-67
2022/08/04 06:01:46;;;;;;;1.40;0.75;;;;;;;26.89;80.20;100637.31;4973288;28;20034;-67
2022/08/04 06:04:12;;;;;;;3.58;1.00;;;;;;;27.10;79.40;100637.03;4972858;28;20038;-67
2022/08/04 06:06:39;;;;;;;1.48;0.80;;;;;;;27.42;78.36;100641.06;4973324;28;20499;-67
2022/08/04 06:09:05;;;;;;;1.27;0.80;;;;;;;27.61;78.24;100642.47;4954421;28;20045;-67
2022/08/04 06:11:33;;;;;;;2.30;0.95;;;;;;;27.57;77.83;100647.41;4973243;28;20038;-67
2022/08/04 06:14:03;;;;;;;1.35;0.80;;;;;;;27.72;78.89;100645.44;4972714;28;21179;-67
2022/08/04 06:16:42;;;;;;;0.73;0.65;;;;;;;27.82;78.40;100635.84;4973136;28;20045;-67
2022/08/04 06:19:11;;;;;;;1.48;1.10;;;;;;;28.05;78.44;100635.06;4969756;28;20046;-68
2022/08/04 06:21:42;;;;;;;1.70;1.00;;;;;;;28.12;79.43;100648.56;4967714;28;20110;-68
2022/08/04 06:24:11;;;;;;;0.82;0.60;;;;;;;28.02;76.86;100644.34;4973108;28;20440;-67
2022/08/04 06:26:39;;;;;;;1.17;1.00;;;;;;;27.99;76.67;100645.28;4969761;28;20566;-67
2022/08/04 06:29:14;;;;;;;1.42;0.98;;;;;;;28.01;77.46;100634.47;4972432;28;20038;-67
2022/08/04 06:32:12;;;;;;;1.15;0.90;;;;;;;28.13;77.97;100639.00;4973196;28;20068;-67
2022/08/04 06:34:28;;;;;;;0.88;0.80;;;;;;;28.13;76.92;100633.47;4969654;28;20109;-67
2022/08/04 06:36:56;;;;;;;3.75;1.00;;;;;;;28.27;76.96;100627.16;4970899;28;20043;-67
2022/08/04 06:39:24;;;;;;;4.53;1.10;;;;;;;28.27;76.54;100629.94;4970516;28;20035;-67
2022/08/04 06:41:52;;;;;;;3.05;0.80;;;;;;;28.36;77.21;100634.63;4955294;28;20125;-68
2022/08/04 06:44:20;;;;;;;0.80;0.73;;;;;;;28.33;77.47;100632.81;4969024;28;20094;-68
2022/08/04 06:46:47;;;;;;;1.77;1.30;;;;;;;28.48;77.76;100628.81;4972310;28;20026;-67
2022/08/04 06:49:13;;;;;;;3.50;1.00;;;;;;;28.70;76.19;100625.66;4971980;28;20496;-67
2022/08/04 06:51:41;;;;;;;0.70;0.65;;;;;;;28.65;73.98;100629.09;4973002;28;20034;-67
2022/08/04 06:54:06;;;;;;;1.45;1.10;;;;;;;28.88;73.00;100627.47;4970499;28;20129;-67
2022/08/04 06:56:34;;;;;;;1.45;0.95;;;;;;;29.06;73.33;100629.97;4972304;28;20174;-67
2022/08/04 06:59:03;;;;;;;2.97;1.00;;;;;;;29.13;73.17;100626.84;4972207;28;20050;-67
2022/08/04 07:01:30;;;;;;;0.95;0.85;;;;;;;29.19;71.44;100620.13;4970766;28;20136;-67
2022/08/04 07:03:56;;;;;;;0.93;0.75;;;;;;;29.30;69.22;100622.28;4967200;28;20046;-67
2022/08/04 07:06:22;;;;;;;2.13;1.00;;;;;;;29.45;70.63;100613.88;4972372;28;20027;-67
2022/08/04 07:08:49;;;;;;;1.92;0.75;;;;;;;29.53;71.35;100615.78;4969532;28;20378;-67
2022/08/04 07:11:16;;;;;;;4.25;1.00;;;;;;;29.60;69.49;100622.94;4970071;28;20057;-68
2022/08/04 07:13:43;;;;;;;0.70;0.70;;;;;;;29.54;67.84;100614.50;4971897;28;20060;-67
2022/08/04 07:16:12;;;;;;;2.40;1.00;;;;;;;29.77;71.19;100616.34;4972098;28;20023;-67
2022/08/04 07:18:38;;;;;;;2.17;0.93;;;;;;;29.87;67.28;100612.16;4969192;28;20043;-67
2022/08/04 07:21:04;;;;;;;1.40;0.75;;;;;;;30.12;68.29;100622.53;4972133;28;20061;-68
2022/08/04 07:23:30;;;;;;;2.65;0.95;;;;;;;29.99;65.36;100615.81;4971771;28;20082;-67
2022/08/04 07:25:57;;;;;;;1.55;0.70;;;;;;;30.19;65.58;100613.78;4972475;28;20046;-68
2022/08/04 07:28:27;;;;;;;1.33;0.80;;;;;;;30.35;66.15;100603.31;4971226;28;20076;-67
2022/08/04 07:30:55;;;;;;;5.03;1.00;;;;;;;30.61;64.43;100615.94;4971773;28;20045;-67
2022/08/04 07:33:22;;;;;;;1.40;0.88;;;;;;;30.70;61.32;100612.22;4971153;28;20550;-67
2022/08/04 07:35:53;;;;;;;3.70;0.93;;;;;;;30.59;59.42;100614.91;4971918;28;20038;-67
2022/08/04 07:38:19;;;;;;;1.27;0.70;;;;;;;30.50;59.95;100607.50;4966949;28;20058;-68
2022/08/04 07:40:45;;;;;;;1.13;0.80;;;;;;;30.65;59.24;100610.13;4970306;28;20095;-68
2022/08/04 07:43:14;;;;;;;1.95;0.68;;;;;;;31.13;58.92;100607.47;4971644;28;20031;-67
2022/08/04 07:45:39;;;;;;;1.67;1.00;;;;;;;31.22;57.67;100605.25;4971746;28;20477;-67
2022/08/04 07:48:06;;;;;;;3.05;0.70;;;;;;;31.60;56.94;100617.84;4971112;28;20050;-68
2022/08/04 07:50:32;;;;;;;2.88;0.88;;;;;;;31.75;55.31;100619.16;4967386;28;20057;-68
2022/08/04 07:52:59;;;;;;;3.53;0.80;;;;;;;31.72;55.78;100611.06;4966957;28;20042;-68
2022/08/04 07:55:27;;;;;;;1.33;0.80;;;;;;;32.00;56.39;100611.16;4971211;28;20377;-68
2022/08/04 07:57:52;;;;;;;0.90;0.63;;;;;;;32.25;56.53;100613.72;4971017;28;20113;-68
2022/08/04 08:00:18;;;;;;;1.50;0.82;;;;;;;32.18;53.47;100605.09;4969051;28;20046;-68
2022/08/04 08:02:53;;;;;;;3.55;0.88;;;;;;;32.24;53.67;100598.28;4969377;28;20038;-68
2022/08/04 08:05:20;;;;;;;1.15;0.80;;;;;;;32.58;54.34;100605.41;4971215;28;20078;-68
2022/08/04 08:07:49;;;;;;;0.70;0.50;;;;;;;32.78;54.46;100599.56;4970729;28;20026;-68
2022/08/04 08:10:15;;;;;;;1.98;0.52;;;;;;;32.99;54.72;100602.84;4968972;28;20481;-68
2022/08/04 08:12:42;;;;;;;5.13;1.30;;;;;;;33.03;52.85;100599.78;4971322;28;20109;-68
2022/08/04 08:15:11;;;;;;;2.15;1.33;;;;;;;33.24;52.21;100610.13;4971218;28;20034;-68
2022/08/04 08:17:39;;;;;;;4.80;0.68;;;;;;;33.47;53.08;100597.63;4966620;28;20039;-68
2022/08/04 08:20:09;;;;;;;2.17;0.90;;;;;;;33.63;52.42;100604.41;4965281;28;20050;-68
2022/08/04 08:22:36;;;;;;;2.88;0.95;;;;;;;33.74;51.48;100604.34;4967364;28;20038;-68
2022/08/04 08:25:04;;;;;;;2.00;0.68;;;;;;;33.66;47.45;100589.44;4977505;28;20023;-68
2022/08/04 08:27:30;;;;;;;4.18;0.80;;;;;;;33.66;47.70;100592.22;4976751;28;20530;-68
2022/08/04 08:29:56;;;;;;;3.08;0.70;;;;;;;33.91;49.97;100596.66;4977093;28;20046;-68
2022/08/04 08:32:22;;;;;;;1.00;0.90;;;;;;;34.09;47.28;100593.25;4973902;28;20081;-68
2022/08/04 08:34:47;;;;;;;2.60;0.70;;;;;;;34.17;48.70;100590.63;4975725;28;20126;-68
2022/08/04 08:37:24;;;;;;;3.65;0.60;;;;;;;34.38;48.92;100580.56;4977812;28;20046;-68
2022/08/04 08:39:50;;;;;;;1.73;0.80;;;;;;;34.61;47.70;100583.97;4963553;28;20063;-68
2022/08/04 08:42:43;;;;;;;1.48;0.73;;;;;;;34.86;45.95;100582.69;4977147;28;20065;-68
2022/08/04 08:45:37;;;;;;;0.95;0.63;;;;;;;34.97;44.83;100569.34;4977696;28;20494;-68
2022/08/04 08:48:15;;;;;;;1.05;0.95;;;;;;;35.09;46.25;100575.59;4974662;28;20133;-68
2022/08/04 08:51:12;;;;;;;1.42;0.85;;;;;;;34.90;43.53;100577.56;4973900;28;20034;-68
2022/08/04 08:54:06;;;;;;;0.93;0.77;;;;;;;34.73;42.73;100577.72;4922955;28;20050;-68
2022/08/04 08:56:44;;;;;;;1.25;0.85;;;;;;;34.75;41.84;100580.75;4977540;28;20041;-68
2022/08/04 08:59:28;;;;;;;1.85;0.90;;;;;;;34.30;42.38;100577.56;4976005;28;20054;-68
2022/08/04 09:02:22;;;;;;;1.40;0.80;;;;;;;34.35;42.97;100571.19;4974157;28;20320;-68
2022/08/04 09:05:11;;;;;;;0.70;0.70;;;;;;;34.85;43.87;100570.72;4974369;28;20038;-68
2022/08/04 09:07:46;;;;;;;0.82;0.75;;;;;;;35.16;44.64;100567.34;4975841;28;20483;-68
2022/08/04 09:10:25;;;;;;;2.45;0.95;;;;;;;35.49;42.79;100569.00;4968388;28;20772;-68
2022/08/04 09:13:07;;;;;;;1.40;0.80;;;;;;;35.56;40.98;100570.44;4975866;28;20243;-68
2022/08/04 09:15:48;;;;;;;0.80;0.80;;;;;;;34.90;41.45;100564.28;4976973;28;20049;-68
2022/08/04 09:18:31;;;;;;;1.98;1.13;;;;;;;35.30;40.63;100571.00;4958569;28;20045;-68
2022/08/04 09:21:08;;;;;;;1.58;1.00;;;;;;;35.71;41.47;100565.91;4974625;28;20488;-68
2022/08/04 09:23:50;;;;;;;1.50;1.20;;;;;;;35.86;40.42;100560.56;4976807;28;20114;-68
2022/08/04 09:26:40;;;;;;;1.10;0.90;;;;;;;36.26;39.59;100564.28;4976924;28;20035;-68
2022/08/04 09:29:16;;;;;;;1.20;1.00;;;;;;;36.26;39.34;100569.91;4974339;28;20049;-68
2022/08/04 09:32:02;;;;;;;1.65;0.95;;;;;;;36.43;38.79;100575.28;4971670;28;20039;-68
2022/08/04 09:34:50;;;;;;;0.80;0.80;;;;;;;36.81;39.23;100563.34;4972420;28;20121;-68
2022/08/04 09:37:48;;;;;;;1.38;0.90;;;;;;;37.12;38.83;100558.94;4973941;28;20467;-68
2022/08/04 09:40:28;;;;;;;0.80;0.80;;;;;;;37.33;38.16;100561.84;4954728;28;20423;-68
2022/08/04 09:43:11;;;;;;;1.10;1.00;;;;;;;37.47;37.53;100552.09;4970647;28;20047;-68
2022/08/04 09:45:45;;;;;;;1.52;0.80;;;;;;;37.16;37.74;100564.22;4967885;28;20294;-69
2022/08/04 09:48:19;;;;;;;0.70;0.70;;;;;;;37.46;37.67;100556.97;4972807;28;20038;-68
2022/08/04 09:50:53;;;;;;;4.35;1.17;;;;;;;37.73;38.97;100566.06;4972284;28;20154;-68
2022/08/04 09:53:47;;;;;;;1.67;1.00;;;;;;;37.28;38.17;100559.91;4971034;28;20047;-68
2022/08/04 09:56:40;;;;;;;2.22;1.10;;;;;;;37.25;38.44;100550.50;4971072;28;20054;-68
2022/08/04 09:59:26;;;;;;;1.02;0.80;;;;;;;37.47;37.64;100552.88;4972871;28;20042;-68
2022/08/04 10:02:02;;;;;;;1.08;0.82;;;;;;;37.71;37.55;100551.81;4973175;28;20117;-68
2022/08/04 10:04:30;;;;;;;1.05;0.95;;;;;;;37.51;37.71;100547.66;4971664;28;20043;-67
2022/08/04 10:07:02;;;;;;;1.13;0.98;;;;;;;37.62;37.67;100549.47;4971990;28;20038;-68
2022/08/04 10:09:41;;;;;;;1.25;0.95;;;;;;;38.01;37.50;100535.25;4969599;28;20099;-68
2022/08/04 10:12:09;;;;;;;1.10;1.00;;;;;;;38.27;37.19;100540.75;4972294;28;20132;-68
2022/08/04 10:15:05;;;;;;;1.23;1.10;;;;;;;38.48;37.33;100535.13;4972870;28;20034;-68
2022/08/04 10:17:50;;;;;;;1.15;0.75;;;;;;;38.35;36.45;100524.69;4971445;28;20109;-68
2022/08/04 10:20:27;;;;;;;1.17;1.02;;;;;;;38.39;36.17;100533.53;4973079;28;20039;-68
2022/08/04 10:25:46;;;;;;;1.27;0.85;;;;;;;37.71;34.14;100521.63;4971466;28;20057;-67
2022/08/04 10:28:16;;;;;;;0.73;0.73;;;;;;;38.25;34.87;100520.13;4971714;28;20039;-66
2022/08/04 10:30:48;;;;;;;1.35;0.85;;;;;;;38.62;34.72;100520.38;4976652;28;20037;-66
2022/08/04 10:33:24;;;;;;;1.27;0.95;;;;;;;38.71;32.70;100519.16;4969445;28;20042;-67
2022/08/04 10:35:59;;;;;;;1.42;0.90;;;;;;;38.75;31.88;100514.66;4969741;28;20039;-66
2022/08/04 10:38:36;;;;;;;1.17;0.98;;;;;;;38.02;32.04;100519.88;4972805;28;20030;-66
2022/08/04 10:41:23;;;;;;;1.40;1.02;;;;;;;38.15;32.41;100519.81;4974029;28;20045;-66
2022/08/04 10:43:55;;;;;;;1.67;0.90;;;;;;;37.81;32.40;100517.06;4972393;28;20046;-66
2022/08/04 10:46:28;;;;;;;0.68;0.57;;;;;;;37.73;33.22;100504.19;4971506;28;20038;-66
2022/08/04 10:49:06;;;;;;;0.95;0.85;;;;;;;37.75;31.99;100510.00;4971155;28;20039;-66
2022/08/04 10:51:41;;;;;;;0.70;0.70;;;;;;;38.01;32.84;100500.72;4970753;28;20034;-66
2022/08/04 10:54:12;;;;;;;1.15;0.90;;;;;;;38.16;32.91;100501.59;4972341;28;20039;-66
2022/08/04 10:56:42;;;;;;;1.20;0.75;;;;;;;38.53;33.36;100501.16;4972608;28;20093;-66
2022/08/04 10:59:39;;;;;;;1.80;1.10;;;;;;;38.50;32.47;100493.81;4971221;28;20066;-66
2022/08/04 11:02:19;;;;;;;1.25;1.10;;;;;;;38.53;32.24;100491.97;4972674;28;20046;-66
2022/08/04 11:04:57;;;;;;;1.98;1.20;;;;;;;37.98;32.71;100488.50;4968228;28;20141;-67
2022/08/04 11:07:23;;;;;;;1.05;0.98;;;;;;;38.38;33.24;100489.81;4967978;28;20458;-66
2022/08/04 11:09:50;;;;;;;1.67;0.93;;;;;;;38.78;32.87;100481.78;4966186;28;20043;-66
2022/08/04 11:12:22;;;;;;;1.02;0.80;;;;;;;38.98;31.51;100489.44;4971073;28;20090;-66
2022/08/04 11:15:00;;;;;;;1.55;1.10;;;;;;;39.28;32.31;100483.16;4967238;28;20069;-67
2022/08/04 11:17:34;;;;;;;2.85;1.10;;;;;;;39.05;32.73;100479.47;4966951;28;20037;-66
2022/08/04 11:20:18;;;;;;;1.58;1.10;;;;;;;39.17;32.18;100478.63;4962859;28;20119;-67
2022/08/04 11:22:54;;;;;;;1.00;0.98;;;;;;;39.72;31.75;100476.16;4962827;28;20051;-66
2022/08/04 11:25:24;;;;;;;2.38;1.25;;;;;;;39.68;32.41;100484.25;4970032;28;20042;-66
2022/08/04 11:28:10;;;;;;;1.05;0.95;;;;;;;40.14;31.66;100462.44;4971115;28;20121;-66
2022/08/04 11:31:06;;;;;;;2.05;1.00;;;;;;;40.35;31.77;100460.16;4965284;28;20392;-66
2022/08/04 11:34:00;;;;;;;2.22;1.17;;;;;;;40.50;30.51;100462.97;4958302;28;20102;-66
2022/08/04 11:36:45;;;;;;;0.80;0.80;;;;;;;40.65;30.29;100468.59;4971647;28;20122;-68
2022/08/04 11:39:34;;;;;;;1.52;1.02;;;;;;;40.38;30.52;100444.94;4970713;28;20043;-67
2022/08/04 11:42:15;;;;;;;1.08;1.02;;;;;;;40.59;31.17;100465.22;4971050;28;20031;-66
2022/08/04 11:44:43;;;;;;;1.10;0.98;;;;;;;40.88;30.93;100462.88;4968916;28;20034;-66
2022/08/04 11:47:20;;;;;;;1.13;1.02;;;;;;;40.90;31.10;100471.56;4968041;28;20045;-66
2022/08/04 11:49:53;;;;;;;0.70;0.70;;;;;;;40.87;30.57;100467.03;4970425;28;20037;-66
2022/08/04 11:52:21;;;;;;;0.88;0.88;;;;;;;40.52;30.29;100459.59;4971523;28;20038;-66
2022/08/04 11:54:48;;;;;;;1.23;1.13;;;;;;;40.17;30.42;100456.41;4970935;28;20129;-66
2022/08/04 11:57:14;;;;;;;1.50;1.02;;;;;;;39.81;30.82;100460.72;4968567;28;20380;-67
2022/08/04 11:59:42;;;;;;;1.70;0.88;;;;;;;39.14;31.23;100456.44;4975494;28;20030;-67
2022/08/04 12:02:23;;;;;;;0.90;0.88;;;;;;;39.62;31.68;100456.19;4970124;28;20045;-67
2022/08/04 12:04:56;;;;;;;0.98;0.90;;;;;;;40.13;31.14;100453.22;4971048;28;20066;-67
2022/08/04 12:07:59;;;;;;;1.42;1.15;;;;;;;40.27;30.12;100457.34;4969668;28;20038;-66
2022/08/04 12:11:01;;;;;;;0.93;0.90;;;;;;;39.72;29.56;100442.28;4939550;28;20043;-66